sensor_id;sensor_type;location;lat;lon;timestamp;P1;durP1;ratioP1;P2;durP2;ratioP2
3050;SDS011;1535;51.098;6.414;2022-07-18T00:00:31;14.17;;;12.73;;
3050;SDS011;1535;51.098;6.414;2022-07-18T00:02:58;13.77;;;12.43;;
3050;SDS011;1535;51.098;6.414;2022-07-18T00:05:25;15.30;;;13.90;;
3050;SDS011;1535;51.098;6.414;2022-07-18T00:07:53;13.30;;;12.27;;
3050;SDS011;1535;51.098;6.414;2022-07-18T00:10:19;13.43;;;12.20;;
3050;SDS011;1535;51.098;6.414;2022-07-18T00:12:47;15.03;;;13.60;;
3050;SDS011;1535;51.098;6.414;2022-07-18T00:15:17;14.83;;;13.40;;
3050;SDS011;1535;51.098;6.414;2022-07-18T00:17:43;13.07;;;12.27;;
3050;SDS011;1535;51.098;6.414;2022-07-18T00:20:11;13.20;;;12.23;;
3050;SDS011;1535;51.098;6.414;2022-07-18T00:22:38;17.47;;;13.23;;
3050;SDS011;1535;51.098;6.414;2022-07-18T00:25:05;14.63;;;13.53;;
3050;SDS011;1535;51.098;6.414;2022-07-18T00:27:32;14.67;;;13.40;;
3050;SDS011;1535;51.098;6.414;2022-07-18T00:30:00;14.43;;;13.20;;
3050;SDS011;1535;51.098;6.414;2022-07-18T00:32:28;13.33;;;12.13;;
3050;SDS011;1535;51.098;6.414;2022-07-18T00:34:55;13.70;;;12.70;;
3050;SDS011;1535;51.098;6.414;2022-07-18T00:37:22;13.40;;;12.50;;
3050;SDS011;1535;51.098;6.414;2022-07-18T00:39:50;14.03;;;12.83;;
3050;SDS011;1535;51.098;6.414;2022-07-18T00:42:17;14.07;;;13.17;;
3050;SDS011;1535;51.098;6.414;2022-07-18T00:44:45;14.80;;;13.50;;
3050;SDS011;1535;51.098;6.414;2022-07-18T00:47:12;14.20;;;12.67;;
3050;SDS011;1535;51.098;6.414;2022-07-18T00:49:40;13.50;;;12.50;;
3050;SDS011;1535;51.098;6.414;2022-07-18T00:52:07;13.17;;;12.20;;
3050;SDS011;1535;51.098;6.414;2022-07-18T00:54:34;13.30;;;12.07;;
3050;SDS011;1535;51.098;6.414;2022-07-18T00:57:02;13.83;;;12.83;;
3050;SDS011;1535;51.098;6.414;2022-07-18T00:59:29;13.60;;;12.30;;
3050;SDS011;1535;51.098;6.414;2022-07-18T01:02:15;13.90;;;12.80;;
3050;SDS011;1535;51.098;6.414;2022-07-18T01:04:43;14.20;;;12.57;;
3050;SDS011;1535;51.098;6.414;2022-07-18T01:07:10;13.73;;;12.73;;
3050;SDS011;1535;51.098;6.414;2022-07-18T01:09:38;15.03;;;12.47;;
3050;SDS011;1535;51.098;6.414;2022-07-18T01:12:06;13.40;;;12.13;;
3050;SDS011;1535;51.098;6.414;2022-07-18T01:14:33;13.17;;;12.37;;
3050;SDS011;1535;51.098;6.414;2022-07-18T01:17:02;14.03;;;13.07;;
3050;SDS011;1535;51.098;6.414;2022-07-18T01:19:37;13.07;;;12.27;;
3050;SDS011;1535;51.098;6.414;2022-07-18T01:22:05;12.37;;;11.67;;
3050;SDS011;1535;51.098;6.414;2022-07-18T01:24:32;13.60;;;12.67;;
3050;SDS011;1535;51.098;6.414;2022-07-18T01:26:59;13.03;;;12.33;;
3050;SDS011;1535;51.098;6.414;2022-07-18T01:29:26;13.33;;;11.90;;
3050;SDS011;1535;51.098;6.414;2022-07-18T01:31:53;12.83;;;11.90;;
3050;SDS011;1535;51.098;6.414;2022-07-18T01:34:21;12.70;;;11.60;;
3050;SDS011;1535;51.098;6.414;2022-07-18T01:36:48;12.27;;;11.67;;
3050;SDS011;1535;51.098;6.414;2022-07-18T01:39:18;13.43;;;12.33;;
3050;SDS011;1535;51.098;6.414;2022-07-18T01:41:44;13.30;;;11.53;;
3050;SDS011;1535;51.098;6.414;2022-07-18T01:44:11;13.47;;;12.47;;
3050;SDS011;1535;51.098;6.414;2022-07-18T01:46:38;12.73;;;11.90;;
3050;SDS011;1535;51.098;6.414;2022-07-18T01:49:05;12.60;;;11.50;;
3050;SDS011;1535;51.098;6.414;2022-07-18T01:51:33;17.27;;;11.27;;
3050;SDS011;1535;51.098;6.414;2022-07-18T01:53:59;12.53;;;11.50;;
3050;SDS011;1535;51.098;6.414;2022-07-18T01:56:28;12.80;;;11.03;;
3050;SDS011;1535;51.098;6.414;2022-07-18T01:58:56;11.23;;;10.63;;
3050;SDS011;1535;51.098;6.414;2022-07-18T02:01:23;12.23;;;11.23;;
3050;SDS011;1535;51.098;6.414;2022-07-18T02:03:49;15.97;;;12.20;;
3050;SDS011;1535;51.098;6.414;2022-07-18T02:06:16;11.80;;;11.00;;
3050;SDS011;1535;51.098;6.414;2022-07-18T02:08:43;12.33;;;11.53;;
3050;SDS011;1535;51.098;6.414;2022-07-18T02:11:10;12.10;;;11.07;;
3050;SDS011;1535;51.098;6.414;2022-07-18T02:13:38;13.40;;;12.00;;
3050;SDS011;1535;51.098;6.414;2022-07-18T02:16:05;12.03;;;11.10;;
3050;SDS011;1535;51.098;6.414;2022-07-18T02:18:32;15.53;;;12.33;;
3050;SDS011;1535;51.098;6.414;2022-07-18T02:21:00;16.03;;;11.03;;
3050;SDS011;1535;51.098;6.414;2022-07-18T02:23:27;11.57;;;10.67;;
3050;SDS011;1535;51.098;6.414;2022-07-18T02:25:55;11.33;;;10.60;;
3050;SDS011;1535;51.098;6.414;2022-07-18T02:28:23;11.77;;;10.97;;
3050;SDS011;1535;51.098;6.414;2022-07-18T02:30:51;12.37;;;11.40;;
3050;SDS011;1535;51.098;6.414;2022-07-18T02:33:18;12.30;;;11.10;;
3050;SDS011;1535;51.098;6.414;2022-07-18T02:35:46;17.80;;;11.67;;
3050;SDS011;1535;51.098;6.414;2022-07-18T02:38:13;11.80;;;10.80;;
3050;SDS011;1535;51.098;6.414;2022-07-18T02:40:40;11.20;;;10.20;;
3050;SDS011;1535;51.098;6.414;2022-07-18T02:43:07;12.53;;;11.40;;
3050;SDS011;1535;51.098;6.414;2022-07-18T02:45:34;11.53;;;10.40;;
3050;SDS011;1535;51.098;6.414;2022-07-18T02:48:02;12.27;;;11.53;;
3050;SDS011;1535;51.098;6.414;2022-07-18T02:50:30;11.17;;;10.47;;
3050;SDS011;1535;51.098;6.414;2022-07-18T02:52:58;14.07;;;10.77;;
3050;SDS011;1535;51.098;6.414;2022-07-18T02:55:26;11.50;;;10.43;;
3050;SDS011;1535;51.098;6.414;2022-07-18T02:57:52;11.63;;;10.63;;
3050;SDS011;1535;51.098;6.414;2022-07-18T03:00:33;11.83;;;10.93;;
3050;SDS011;1535;51.098;6.414;2022-07-18T03:03:00;14.83;;;10.30;;
3050;SDS011;1535;51.098;6.414;2022-07-18T03:05:29;10.80;;;10.20;;
3050;SDS011;1535;51.098;6.414;2022-07-18T03:07:57;11.10;;;10.20;;
3050;SDS011;1535;51.098;6.414;2022-07-18T03:10:24;12.30;;;10.23;;
3050;SDS011;1535;51.098;6.414;2022-07-18T03:12:51;14.00;;;9.97;;
3050;SDS011;1535;51.098;6.414;2022-07-18T03:15:17;11.53;;;10.53;;
3050;SDS011;1535;51.098;6.414;2022-07-18T03:17:45;10.57;;;9.77;;
3050;SDS011;1535;51.098;6.414;2022-07-18T03:20:13;11.40;;;10.50;;
3050;SDS011;1535;51.098;6.414;2022-07-18T03:22:41;12.47;;;11.23;;
3050;SDS011;1535;51.098;6.414;2022-07-18T03:25:08;13.70;;;10.73;;
3050;SDS011;1535;51.098;6.414;2022-07-18T03:27:35;12.47;;;11.30;;
3050;SDS011;1535;51.098;6.414;2022-07-18T03:30:02;12.20;;;11.47;;
3050;SDS011;1535;51.098;6.414;2022-07-18T03:32:29;12.30;;;11.37;;
3050;SDS011;1535;51.098;6.414;2022-07-18T03:34:56;11.97;;;10.90;;
3050;SDS011;1535;51.098;6.414;2022-07-18T03:37:23;11.20;;;10.50;;
3050;SDS011;1535;51.098;6.414;2022-07-18T03:39:51;10.80;;;10.10;;
3050;SDS011;1535;51.098;6.414;2022-07-18T03:42:19;12.50;;;11.27;;
3050;SDS011;1535;51.098;6.414;2022-07-18T03:44:46;12.77;;;10.90;;
3050;SDS011;1535;51.098;6.414;2022-07-18T03:47:12;12.23;;;11.40;;
3050;SDS011;1535;51.098;6.414;2022-07-18T03:49:41;13.53;;;12.13;;
3050;SDS011;1535;51.098;6.414;2022-07-18T03:52:09;12.97;;;11.97;;
3050;SDS011;1535;51.098;6.414;2022-07-18T03:54:36;15.00;;;12.13;;
3050;SDS011;1535;51.098;6.414;2022-07-18T03:57:04;19.33;;;12.63;;
3050;SDS011;1535;51.098;6.414;2022-07-18T03:59:31;20.77;;;12.20;;
3050;SDS011;1535;51.098;6.414;2022-07-18T04:01:58;15.80;;;12.60;;
3050;SDS011;1535;51.098;6.414;2022-07-18T04:04:25;13.87;;;12.13;;
3050;SDS011;1535;51.098;6.414;2022-07-18T04:06:52;17.13;;;12.70;;
3050;SDS011;1535;51.098;6.414;2022-07-18T04:09:19;14.17;;;11.83;;
3050;SDS011;1535;51.098;6.414;2022-07-18T04:11:46;13.97;;;12.30;;
3050;SDS011;1535;51.098;6.414;2022-07-18T04:14:14;14.20;;;13.20;;
3050;SDS011;1535;51.098;6.414;2022-07-18T04:16:41;13.30;;;11.93;;
3050;SDS011;1535;51.098;6.414;2022-07-18T04:19:08;20.10;;;13.30;;
3050;SDS011;1535;51.098;6.414;2022-07-18T04:21:35;16.60;;;12.80;;
3050;SDS011;1535;51.098;6.414;2022-07-18T04:24:03;14.93;;;12.90;;
3050;SDS011;1535;51.098;6.414;2022-07-18T04:26:30;16.30;;;12.47;;
3050;SDS011;1535;51.098;6.414;2022-07-18T04:28:57;13.93;;;12.50;;
3050;SDS011;1535;51.098;6.414;2022-07-18T04:31:25;14.03;;;12.77;;
3050;SDS011;1535;51.098;6.414;2022-07-18T04:33:52;16.07;;;12.50;;
3050;SDS011;1535;51.098;6.414;2022-07-18T04:36:19;13.40;;;12.00;;
3050;SDS011;1535;51.098;6.414;2022-07-18T04:38:46;15.63;;;14.10;;
3050;SDS011;1535;51.098;6.414;2022-07-18T04:41:13;17.40;;;12.43;;
3050;SDS011;1535;51.098;6.414;2022-07-18T04:43:42;18.07;;;12.50;;
3050;SDS011;1535;51.098;6.414;2022-07-18T04:46:08;20.63;;;12.40;;
3050;SDS011;1535;51.098;6.414;2022-07-18T04:48:51;13.20;;;11.90;;
3050;SDS011;1535;51.098;6.414;2022-07-18T04:51:17;15.27;;;13.70;;
3050;SDS011;1535;51.098;6.414;2022-07-18T04:53:45;14.87;;;13.47;;
3050;SDS011;1535;51.098;6.414;2022-07-18T04:56:13;17.80;;;13.40;;
3050;SDS011;1535;51.098;6.414;2022-07-18T04:58:40;16.90;;;12.60;;
3050;SDS011;1535;51.098;6.414;2022-07-18T05:01:06;32.30;;;13.90;;
3050;SDS011;1535;51.098;6.414;2022-07-18T05:03:33;21.03;;;14.00;;
3050;SDS011;1535;51.098;6.414;2022-07-18T05:06:01;22.77;;;13.87;;
3050;SDS011;1535;51.098;6.414;2022-07-18T05:08:28;25.30;;;14.07;;
3050;SDS011;1535;51.098;6.414;2022-07-18T05:10:55;21.83;;;13.50;;
3050;SDS011;1535;51.098;6.414;2022-07-18T05:13:22;17.60;;;14.20;;
3050;SDS011;1535;51.098;6.414;2022-07-18T05:15:49;31.83;;;15.63;;
3050;SDS011;1535;51.098;6.414;2022-07-18T05:18:16;27.20;;;16.00;;
3050;SDS011;1535;51.098;6.414;2022-07-18T05:20:43;46.73;;;15.33;;
3050;SDS011;1535;51.098;6.414;2022-07-18T05:23:12;52.80;;;19.17;;
3050;SDS011;1535;51.098;6.414;2022-07-18T05:25:40;46.30;;;15.67;;
3050;SDS011;1535;51.098;6.414;2022-07-18T05:28:08;27.53;;;15.23;;
3050;SDS011;1535;51.098;6.414;2022-07-18T05:30:35;34.87;;;16.00;;
3050;SDS011;1535;51.098;6.414;2022-07-18T05:33:03;22.60;;;15.07;;
3050;SDS011;1535;51.098;6.414;2022-07-18T05:35:30;19.53;;;15.40;;
3050;SDS011;1535;51.098;6.414;2022-07-18T05:37:57;36.33;;;17.10;;
3050;SDS011;1535;51.098;6.414;2022-07-18T05:40:25;45.33;;;15.43;;
3050;SDS011;1535;51.098;6.414;2022-07-18T05:42:53;27.40;;;15.00;;
3050;SDS011;1535;51.098;6.414;2022-07-18T05:45:20;32.80;;;15.90;;
3050;SDS011;1535;51.098;6.414;2022-07-18T05:47:48;29.30;;;15.50;;
3050;SDS011;1535;51.098;6.414;2022-07-18T05:50:14;17.33;;;15.50;;
3050;SDS011;1535;51.098;6.414;2022-07-18T05:52:42;18.33;;;14.60;;
3050;SDS011;1535;51.098;6.414;2022-07-18T05:55:10;30.43;;;15.33;;
3050;SDS011;1535;51.098;6.414;2022-07-18T05:57:38;26.03;;;15.60;;
3050;SDS011;1535;51.098;6.414;2022-07-18T06:00:06;23.20;;;15.87;;
3050;SDS011;1535;51.098;6.414;2022-07-18T06:02:35;22.73;;;15.10;;
3050;SDS011;1535;51.098;6.414;2022-07-18T06:05:02;29.33;;;15.00;;
3050;SDS011;1535;51.098;6.414;2022-07-18T06:07:29;27.43;;;15.90;;
3050;SDS011;1535;51.098;6.414;2022-07-18T06:09:56;30.03;;;16.47;;
3050;SDS011;1535;51.098;6.414;2022-07-18T06:12:23;37.27;;;15.97;;
3050;SDS011;1535;51.098;6.414;2022-07-18T06:14:51;37.97;;;17.17;;
3050;SDS011;1535;51.098;6.414;2022-07-18T06:17:18;49.50;;;16.83;;
3050;SDS011;1535;51.098;6.414;2022-07-18T06:19:45;40.93;;;17.27;;
3050;SDS011;1535;51.098;6.414;2022-07-18T06:22:12;49.83;;;18.10;;
3050;SDS011;1535;51.098;6.414;2022-07-18T06:24:39;50.23;;;17.87;;
3050;SDS011;1535;51.098;6.414;2022-07-18T06:27:05;26.00;;;17.30;;
3050;SDS011;1535;51.098;6.414;2022-07-18T06:29:32;30.43;;;16.40;;
3050;SDS011;1535;51.098;6.414;2022-07-18T06:32:01;40.70;;;16.80;;
3050;SDS011;1535;51.098;6.414;2022-07-18T06:34:28;27.77;;;16.57;;
3050;SDS011;1535;51.098;6.414;2022-07-18T06:36:55;34.43;;;16.70;;
3050;SDS011;1535;51.098;6.414;2022-07-18T06:39:22;51.97;;;17.00;;
3050;SDS011;1535;51.098;6.414;2022-07-18T06:41:49;37.93;;;17.00;;
3050;SDS011;1535;51.098;6.414;2022-07-18T06:44:16;38.73;;;15.90;;
3050;SDS011;1535;51.098;6.414;2022-07-18T06:46:43;30.97;;;16.97;;
3050;SDS011;1535;51.098;6.414;2022-07-18T06:49:12;31.60;;;16.43;;
3050;SDS011;1535;51.098;6.414;2022-07-18T06:51:40;19.33;;;16.00;;
3050;SDS011;1535;51.098;6.414;2022-07-18T06:54:07;25.23;;;15.83;;
3050;SDS011;1535;51.098;6.414;2022-07-18T06:56:34;22.73;;;15.67;;
3050;SDS011;1535;51.098;6.414;2022-07-18T06:59:01;17.40;;;15.53;;
3050;SDS011;1535;51.098;6.414;2022-07-18T07:01:28;19.87;;;16.43;;
3050;SDS011;1535;51.098;6.414;2022-07-18T07:03:55;25.87;;;15.37;;
3050;SDS011;1535;51.098;6.414;2022-07-18T07:06:23;22.63;;;16.10;;
3050;SDS011;1535;51.098;6.414;2022-07-18T07:08:50;26.70;;;15.63;;
3050;SDS011;1535;51.098;6.414;2022-07-18T07:11:17;34.57;;;16.60;;
3050;SDS011;1535;51.098;6.414;2022-07-18T07:13:44;17.53;;;15.70;;
3050;SDS011;1535;51.098;6.414;2022-07-18T07:16:10;26.43;;;15.80;;
3050;SDS011;1535;51.098;6.414;2022-07-18T07:18:37;24.77;;;15.80;;
3050;SDS011;1535;51.098;6.414;2022-07-18T07:21:05;18.20;;;16.20;;
3050;SDS011;1535;51.098;6.414;2022-07-18T07:23:34;20.30;;;16.23;;
3050;SDS011;1535;51.098;6.414;2022-07-18T07:26:01;25.47;;;15.93;;
3050;SDS011;1535;51.098;6.414;2022-07-18T07:28:28;22.23;;;15.90;;
3050;SDS011;1535;51.098;6.414;2022-07-18T07:30:55;24.10;;;15.53;;
3050;SDS011;1535;51.098;6.414;2022-07-18T07:33:21;30.17;;;16.10;;
3050;SDS011;1535;51.098;6.414;2022-07-18T07:35:48;27.93;;;15.70;;
3050;SDS011;1535;51.098;6.414;2022-07-18T07:38:15;23.40;;;14.80;;
3050;SDS011;1535;51.098;6.414;2022-07-18T07:40:46;21.80;;;16.30;;
3050;SDS011;1535;51.098;6.414;2022-07-18T07:43:14;16.80;;;14.97;;
3050;SDS011;1535;51.098;6.414;2022-07-18T07:45:42;18.10;;;16.33;;
3050;SDS011;1535;51.098;6.414;2022-07-18T07:48:13;22.97;;;15.97;;
3050;SDS011;1535;51.098;6.414;2022-07-18T07:50:41;22.70;;;14.87;;
3050;SDS011;1535;51.098;6.414;2022-07-18T07:53:08;29.13;;;15.87;;
3050;SDS011;1535;51.098;6.414;2022-07-18T07:55:35;21.40;;;15.57;;
3050;SDS011;1535;51.098;6.414;2022-07-18T07:58:03;19.00;;;15.27;;
3050;SDS011;1535;51.098;6.414;2022-07-18T08:00:31;20.17;;;16.30;;
3050;SDS011;1535;51.098;6.414;2022-07-18T08:02:58;23.17;;;15.70;;
3050;SDS011;1535;51.098;6.414;2022-07-18T08:05:28;23.13;;;15.40;;
3050;SDS011;1535;51.098;6.414;2022-07-18T08:07:55;16.57;;;14.90;;
3050;SDS011;1535;51.098;6.414;2022-07-18T08:10:23;17.80;;;15.60;;
3050;SDS011;1535;51.098;6.414;2022-07-18T08:12:50;21.97;;;16.00;;
3050;SDS011;1535;51.098;6.414;2022-07-18T08:15:18;24.67;;;15.40;;
3050;SDS011;1535;51.098;6.414;2022-07-18T08:17:45;19.10;;;16.37;;
3050;SDS011;1535;51.098;6.414;2022-07-18T08:20:13;20.47;;;15.70;;
3050;SDS011;1535;51.098;6.414;2022-07-18T08:22:51;21.53;;;15.57;;
3050;SDS011;1535;51.098;6.414;2022-07-18T08:25:22;16.47;;;14.93;;
3050;SDS011;1535;51.098;6.414;2022-07-18T08:27:50;21.70;;;16.50;;
3050;SDS011;1535;51.098;6.414;2022-07-18T08:30:18;18.27;;;16.50;;
3050;SDS011;1535;51.098;6.414;2022-07-18T08:32:45;17.60;;;15.90;;
3050;SDS011;1535;51.098;6.414;2022-07-18T08:35:12;17.20;;;15.70;;
3050;SDS011;1535;51.098;6.414;2022-07-18T08:37:40;22.90;;;16.50;;
3050;SDS011;1535;51.098;6.414;2022-07-18T08:40:07;23.47;;;16.20;;
3050;SDS011;1535;51.098;6.414;2022-07-18T08:42:35;18.70;;;16.60;;
3050;SDS011;1535;51.098;6.414;2022-07-18T08:45:03;16.03;;;14.70;;
3050;SDS011;1535;51.098;6.414;2022-07-18T08:47:32;29.67;;;15.80;;
3050;SDS011;1535;51.098;6.414;2022-07-18T08:50:00;16.60;;;15.00;;
3050;SDS011;1535;51.098;6.414;2022-07-18T08:52:27;17.03;;;15.23;;
3050;SDS011;1535;51.098;6.414;2022-07-18T08:54:55;19.43;;;15.30;;
3050;SDS011;1535;51.098;6.414;2022-07-18T08:57:22;17.60;;;15.40;;
3050;SDS011;1535;51.098;6.414;2022-07-18T08:59:49;20.97;;;15.80;;
3050;SDS011;1535;51.098;6.414;2022-07-18T09:02:16;23.57;;;15.87;;
3050;SDS011;1535;51.098;6.414;2022-07-18T09:04:45;16.70;;;15.10;;
3050;SDS011;1535;51.098;6.414;2022-07-18T09:07:22;17.00;;;15.30;;
3050;SDS011;1535;51.098;6.414;2022-07-18T09:09:51;20.70;;;15.30;;
3050;SDS011;1535;51.098;6.414;2022-07-18T09:12:19;16.50;;;14.80;;
3050;SDS011;1535;51.098;6.414;2022-07-18T09:14:46;19.03;;;14.97;;
3050;SDS011;1535;51.098;6.414;2022-07-18T09:17:14;16.77;;;15.07;;
3050;SDS011;1535;51.098;6.414;2022-07-18T09:19:57;16.60;;;15.37;;
3050;SDS011;1535;51.098;6.414;2022-07-18T09:22:27;16.90;;;15.53;;
3050;SDS011;1535;51.098;6.414;2022-07-18T09:25:01;16.10;;;15.00;;
3050;SDS011;1535;51.098;6.414;2022-07-18T09:27:31;16.30;;;14.90;;
3050;SDS011;1535;51.098;6.414;2022-07-18T09:30:13;20.10;;;15.47;;
3050;SDS011;1535;51.098;6.414;2022-07-18T09:32:43;15.90;;;14.47;;
3050;SDS011;1535;51.098;6.414;2022-07-18T09:35:13;16.27;;;14.70;;
3050;SDS011;1535;51.098;6.414;2022-07-18T09:37:51;15.90;;;14.70;;
3050;SDS011;1535;51.098;6.414;2022-07-18T09:40:20;17.83;;;15.20;;
3050;SDS011;1535;51.098;6.414;2022-07-18T09:42:49;16.53;;;14.90;;
3050;SDS011;1535;51.098;6.414;2022-07-18T09:45:21;17.43;;;15.30;;
3050;SDS011;1535;51.098;6.414;2022-07-18T09:47:50;16.33;;;15.30;;
3050;SDS011;1535;51.098;6.414;2022-07-18T09:50:21;16.67;;;15.33;;
3050;SDS011;1535;51.098;6.414;2022-07-18T09:53:00;16.00;;;14.77;;
3050;SDS011;1535;51.098;6.414;2022-07-18T09:55:29;15.10;;;14.40;;
3050;SDS011;1535;51.098;6.414;2022-07-18T09:57:58;15.20;;;14.20;;
3050;SDS011;1535;51.098;6.414;2022-07-18T10:00:30;15.70;;;14.70;;
3050;SDS011;1535;51.098;6.414;2022-07-18T10:03:12;15.00;;;14.20;;
3050;SDS011;1535;51.098;6.414;2022-07-18T10:05:41;15.60;;;14.80;;
3050;SDS011;1535;51.098;6.414;2022-07-18T10:08:11;15.90;;;15.03;;
3050;SDS011;1535;51.098;6.414;2022-07-18T10:10:41;15.63;;;14.80;;
3050;SDS011;1535;51.098;6.414;2022-07-18T10:13:09;16.73;;;15.57;;
3050;SDS011;1535;51.098;6.414;2022-07-18T10:15:37;16.43;;;15.00;;
3050;SDS011;1535;51.098;6.414;2022-07-18T10:18:06;15.03;;;14.30;;
3050;SDS011;1535;51.098;6.414;2022-07-18T10:20:35;15.80;;;15.10;;
3050;SDS011;1535;51.098;6.414;2022-07-18T10:23:09;16.00;;;15.10;;
3050;SDS011;1535;51.098;6.414;2022-07-18T10:25:40;15.33;;;14.63;;
3050;SDS011;1535;51.098;6.414;2022-07-18T10:28:09;42.27;;;15.43;;
3050;SDS011;1535;51.098;6.414;2022-07-18T10:30:44;15.43;;;14.50;;
3050;SDS011;1535;51.098;6.414;2022-07-18T10:36:07;15.50;;;14.57;;
3050;SDS011;1535;51.098;6.414;2022-07-18T10:38:37;15.23;;;14.63;;
3050;SDS011;1535;51.098;6.414;2022-07-18T10:41:09;17.73;;;15.40;;
3050;SDS011;1535;51.098;6.414;2022-07-18T10:43:38;16.20;;;15.10;;
3050;SDS011;1535;51.098;6.414;2022-07-18T10:46:06;15.57;;;14.77;;
3050;SDS011;1535;51.098;6.414;2022-07-18T10:48:51;16.17;;;15.00;;
3050;SDS011;1535;51.098;6.414;2022-07-18T10:51:29;15.80;;;15.00;;
3050;SDS011;1535;51.098;6.414;2022-07-18T10:54:05;15.30;;;14.40;;
3050;SDS011;1535;51.098;6.414;2022-07-18T10:59:37;15.03;;;14.33;;
3050;SDS011;1535;51.098;6.414;2022-07-18T11:02:29;15.37;;;14.57;;
3050;SDS011;1535;51.098;6.414;2022-07-18T11:04:58;15.90;;;14.90;;
3050;SDS011;1535;51.098;6.414;2022-07-18T11:07:25;15.90;;;14.97;;
3050;SDS011;1535;51.098;6.414;2022-07-18T11:09:54;16.20;;;15.20;;
3050;SDS011;1535;51.098;6.414;2022-07-18T11:12:22;16.93;;;15.70;;
3050;SDS011;1535;51.098;6.414;2022-07-18T11:15:09;16.20;;;15.40;;
3050;SDS011;1535;51.098;6.414;2022-07-18T11:20:29;14.37;;;13.67;;
3050;SDS011;1535;51.098;6.414;2022-07-18T11:23:13;15.60;;;14.80;;
3050;SDS011;1535;51.098;6.414;2022-07-18T11:25:46;16.63;;;15.60;;
3050;SDS011;1535;51.098;6.414;2022-07-18T11:28:15;16.43;;;15.30;;
3050;SDS011;1535;51.098;6.414;2022-07-18T11:30:43;16.00;;;14.90;;
3050;SDS011;1535;51.098;6.414;2022-07-18T11:33:20;16.00;;;14.73;;
3050;SDS011;1535;51.098;6.414;2022-07-18T11:35:50;15.53;;;14.63;;
3050;SDS011;1535;51.098;6.414;2022-07-18T11:38:17;14.67;;;13.80;;
3050;SDS011;1535;51.098;6.414;2022-07-18T11:40:49;14.77;;;14.07;;
3050;SDS011;1535;51.098;6.414;2022-07-18T11:43:24;15.23;;;14.17;;
3050;SDS011;1535;51.098;6.414;2022-07-18T11:45:58;13.63;;;13.00;;
3050;SDS011;1535;51.098;6.414;2022-07-18T11:48:26;14.60;;;13.90;;
3050;SDS011;1535;51.098;6.414;2022-07-18T11:50:54;15.10;;;13.90;;
3050;SDS011;1535;51.098;6.414;2022-07-18T11:53:21;15.00;;;13.70;;
3050;SDS011;1535;51.098;6.414;2022-07-18T11:55:50;14.77;;;13.40;;
3050;SDS011;1535;51.098;6.414;2022-07-18T11:58:18;14.20;;;13.50;;
3050;SDS011;1535;51.098;6.414;2022-07-18T12:00:45;14.27;;;13.60;;
3050;SDS011;1535;51.098;6.414;2022-07-18T12:03:13;14.30;;;13.40;;
3050;SDS011;1535;51.098;6.414;2022-07-18T12:05:41;13.50;;;12.87;;
3050;SDS011;1535;51.098;6.414;2022-07-18T12:08:31;13.60;;;13.00;;
3050;SDS011;1535;51.098;6.414;2022-07-18T12:11:07;14.00;;;13.27;;
3050;SDS011;1535;51.098;6.414;2022-07-18T12:16:30;14.20;;;13.50;;
3050;SDS011;1535;51.098;6.414;2022-07-18T12:18:58;14.40;;;13.50;;
3050;SDS011;1535;51.098;6.414;2022-07-18T12:21:41;14.20;;;13.40;;
3050;SDS011;1535;51.098;6.414;2022-07-18T12:24:20;13.60;;;12.90;;
3050;SDS011;1535;51.098;6.414;2022-07-18T12:26:58;13.50;;;12.70;;
3050;SDS011;1535;51.098;6.414;2022-07-18T12:30:01;14.03;;;13.27;;
3050;SDS011;1535;51.098;6.414;2022-07-18T12:32:36;14.43;;;13.40;;
3050;SDS011;1535;51.098;6.414;2022-07-18T12:35:05;13.40;;;12.73;;
3050;SDS011;1535;51.098;6.414;2022-07-18T12:37:34;13.60;;;12.90;;
3050;SDS011;1535;51.098;6.414;2022-07-18T12:40:03;13.23;;;12.63;;
3050;SDS011;1535;51.098;6.414;2022-07-18T12:42:33;14.60;;;13.47;;
3050;SDS011;1535;51.098;6.414;2022-07-18T12:45:02;14.10;;;13.40;;
3050;SDS011;1535;51.098;6.414;2022-07-18T12:47:30;13.90;;;13.10;;
3050;SDS011;1535;51.098;6.414;2022-07-18T12:49:57;14.37;;;13.37;;
3050;SDS011;1535;51.098;6.414;2022-07-18T12:52:24;14.23;;;13.40;;
3050;SDS011;1535;51.098;6.414;2022-07-18T12:54:51;14.07;;;12.90;;
3050;SDS011;1535;51.098;6.414;2022-07-18T12:57:18;14.03;;;13.10;;
3050;SDS011;1535;51.098;6.414;2022-07-18T12:59:47;13.13;;;12.53;;
3050;SDS011;1535;51.098;6.414;2022-07-18T13:02:15;13.60;;;12.90;;
3050;SDS011;1535;51.098;6.414;2022-07-18T13:04:42;13.30;;;12.60;;
3050;SDS011;1535;51.098;6.414;2022-07-18T13:07:09;12.93;;;12.43;;
3050;SDS011;1535;51.098;6.414;2022-07-18T13:09:36;13.20;;;12.43;;
3050;SDS011;1535;51.098;6.414;2022-07-18T13:12:03;12.70;;;12.20;;
3050;SDS011;1535;51.098;6.414;2022-07-18T13:14:31;12.80;;;12.20;;
3050;SDS011;1535;51.098;6.414;2022-07-18T13:17:01;13.30;;;12.50;;
3050;SDS011;1535;51.098;6.414;2022-07-18T13:19:28;13.33;;;12.30;;
3050;SDS011;1535;51.098;6.414;2022-07-18T13:21:57;13.60;;;12.90;;
3050;SDS011;1535;51.098;6.414;2022-07-18T13:24:25;13.10;;;12.20;;
3050;SDS011;1535;51.098;6.414;2022-07-18T13:26:52;13.73;;;12.70;;
3050;SDS011;1535;51.098;6.414;2022-07-18T13:29:19;13.23;;;12.33;;
3050;SDS011;1535;51.098;6.414;2022-07-18T13:31:46;13.60;;;12.50;;
3050;SDS011;1535;51.098;6.414;2022-07-18T13:34:16;13.83;;;13.17;;
3050;SDS011;1535;51.098;6.414;2022-07-18T13:36:45;14.03;;;13.30;;
3050;SDS011;1535;51.098;6.414;2022-07-18T13:39:14;13.70;;;12.90;;
3050;SDS011;1535;51.098;6.414;2022-07-18T13:41:41;14.67;;;13.33;;
3050;SDS011;1535;51.098;6.414;2022-07-18T13:44:08;14.50;;;13.47;;
3050;SDS011;1535;51.098;6.414;2022-07-18T13:46:35;14.03;;;13.17;;
3050;SDS011;1535;51.098;6.414;2022-07-18T13:49:02;14.20;;;13.37;;
3050;SDS011;1535;51.098;6.414;2022-07-18T13:51:30;14.73;;;13.80;;
3050;SDS011;1535;51.098;6.414;2022-07-18T13:53:57;13.90;;;13.30;;
3050;SDS011;1535;51.098;6.414;2022-07-18T13:56:24;13.23;;;12.60;;
3050;SDS011;1535;51.098;6.414;2022-07-18T13:58:51;13.90;;;13.00;;
3050;SDS011;1535;51.098;6.414;2022-07-18T14:01:18;13.40;;;12.90;;
3050;SDS011;1535;51.098;6.414;2022-07-18T14:03:45;14.37;;;13.53;;
3050;SDS011;1535;51.098;6.414;2022-07-18T14:06:11;14.20;;;13.30;;
3050;SDS011;1535;51.098;6.414;2022-07-18T14:08:39;14.37;;;13.47;;
3050;SDS011;1535;51.098;6.414;2022-07-18T14:11:06;13.40;;;12.80;;
3050;SDS011;1535;51.098;6.414;2022-07-18T14:13:33;13.60;;;13.00;;
3050;SDS011;1535;51.098;6.414;2022-07-18T14:16:00;13.33;;;12.63;;
3050;SDS011;1535;51.098;6.414;2022-07-18T14:18:27;14.17;;;13.00;;
3050;SDS011;1535;51.098;6.414;2022-07-18T14:20:54;14.43;;;13.33;;
3050;SDS011;1535;51.098;6.414;2022-07-18T14:23:21;12.90;;;12.40;;
3050;SDS011;1535;51.098;6.414;2022-07-18T14:25:49;13.40;;;12.50;;
3050;SDS011;1535;51.098;6.414;2022-07-18T14:28:17;14.80;;;13.60;;
3050;SDS011;1535;51.098;6.414;2022-07-18T14:30:44;12.93;;;11.93;;
3050;SDS011;1535;51.098;6.414;2022-07-18T14:33:11;12.47;;;11.97;;
3050;SDS011;1535;51.098;6.414;2022-07-18T14:35:38;13.10;;;12.40;;
3050;SDS011;1535;51.098;6.414;2022-07-18T14:38:05;12.73;;;12.13;;
3050;SDS011;1535;51.098;6.414;2022-07-18T14:40:32;12.70;;;11.80;;
3050;SDS011;1535;51.098;6.414;2022-07-18T14:43:00;13.20;;;12.30;;
3050;SDS011;1535;51.098;6.414;2022-07-18T14:45:28;13.17;;;12.37;;
3050;SDS011;1535;51.098;6.414;2022-07-18T14:47:55;12.50;;;11.90;;
3050;SDS011;1535;51.098;6.414;2022-07-18T14:50:21;13.17;;;12.33;;
3050;SDS011;1535;51.098;6.414;2022-07-18T14:52:48;13.67;;;13.00;;
3050;SDS011;1535;51.098;6.414;2022-07-18T14:55:15;13.17;;;12.50;;
3050;SDS011;1535;51.098;6.414;2022-07-18T14:57:42;12.50;;;12.00;;
3050;SDS011;1535;51.098;6.414;2022-07-18T15:00:11;12.97;;;12.13;;
3050;SDS011;1535;51.098;6.414;2022-07-18T15:02:38;12.60;;;11.77;;
3050;SDS011;1535;51.098;6.414;2022-07-18T15:05:06;13.37;;;12.50;;
3050;SDS011;1535;51.098;6.414;2022-07-18T15:07:34;13.40;;;12.40;;